Time;durP1;ratioP1;P1;durP2;ratioP2;P2;SDS_P1;SDS_P2;PMS_P1;PMS_P2;Temp;Humidity;BMP_temperature;BMP_pressure;BME280_temperature;BME280_humidity;BME280_pressure;Samples;Min_cycle;Max_cycle;Signal;HPM_P1;HPM_P2
2024/03/26 00:00:25;;;;;;;8.90;4.70;;;;;;;4.16;67.32;100242.89;107580;1251;99323;-66
2024/03/26 00:03:13;;;;;;;13.30;5.80;;;;;;;4.16;67.34;100247.48;107564;1251;99153;-65
2024/03/26 00:05:42;;;;;;;12.40;4.90;;;;;;;4.16;67.47;100249.64;107597;1251;113623;-66
2024/03/26 00:08:10;;;;;;;8.50;4.90;;;;;;;4.13;67.31;100258.84;107590;1251;107467;-65
2024/03/26 00:10:38;;;;;;;11.50;5.30;;;;;;;4.07;67.76;100259.06;107549;1251;108033;-65
2024/03/26 00:13:06;;;;;;;11.90;5.20;;;;;;;4.03;67.77;100257.94;107609;1251;99179;-68
2024/03/26 00:15:34;;;;;;;9.90;6.00;;;;;;;4.01;67.71;100262.72;107564;1254;99689;-69
2024/03/26 00:18:03;;;;;;;10.50;5.60;;;;;;;3.99;67.90;100262.84;107570;1256;113163;-67
2024/03/26 00:20:31;;;;;;;9.70;5.60;;;;;;;3.99;68.17;100270.65;107660;1254;108532;-67
2024/03/26 00:22:59;;;;;;;8.90;5.10;;;;;;;3.99;68.17;100272.61;107595;1253;106674;-68
2024/03/26 00:25:27;;;;;;;9.30;5.20;;;;;;;3.99;67.92;100276.65;107578;1251;99076;-68
2024/03/26 00:27:55;;;;;;;10.90;6.30;;;;;;;4.00;67.91;100283.20;107587;1251;99724;-68
2024/03/26 00:30:23;;;;;;;14.40;5.90;;;;;;;3.96;68.14;100285.58;107670;1251;112340;-68
2024/03/26 00:32:51;;;;;;;8.60;5.00;;;;;;;3.83;68.70;100295.83;107583;1256;107710;-68
2024/03/26 00:35:21;;;;;;;8.90;5.10;;;;;;;3.69;69.34;100297.17;107581;1251;108270;-69
2024/03/26 00:37:49;;;;;;;9.70;5.80;;;;;;;3.56;69.89;100302.95;107603;1251;99169;-66
2024/03/26 00:40:17;;;;;;;7.30;4.20;;;;;;;3.48;70.37;100302.60;107620;1251;99058;-65
2024/03/26 00:42:45;;;;;;;8.40;5.30;;;;;;;3.42;70.52;100299.65;107590;1251;112438;-65
2024/03/26 00:45:13;;;;;;;8.40;5.10;;;;;;;3.42;70.24;100304.95;107559;1251;108683;-64
2024/03/26 00:47:41;;;;;;;9.30;4.50;;;;;;;3.46;70.09;100304.54;107568;1254;107173;-65
2024/03/26 00:50:10;;;;;;;12.20;4.70;;;;;;;3.48;70.18;100306.52;107498;1254;99227;-66
2024/03/26 00:52:38;;;;;;;9.60;5.10;;;;;;;3.44;70.20;100308.89;107528;1254;99248;-68
2024/03/26 00:55:07;;;;;;;8.10;5.30;;;;;;;3.40;70.10;100311.98;107531;1254;113437;-68
2024/03/26 00:57:35;;;;;;;11.70;4.80;;;;;;;3.37;70.18;100309.52;107565;1256;107703;-69
2024/03/26 01:00:08;;;;;;;12.40;5.40;;;;;;;3.35;70.56;100312.52;107562;1254;107690;-69
2024/03/26 01:02:36;;;;;;;7.50;4.80;;;;;;;3.29;71.17;100317.35;107619;1254;99192;-67
2024/03/26 01:05:05;;;;;;;7.40;4.70;;;;;;;3.21;71.51;100324.04;107602;1254;99087;-68
2024/03/26 01:07:33;;;;;;;12.70;5.10;;;;;;;3.16;71.76;100330.08;107667;1254;111907;-68
2024/03/26 01:10:02;;;;;;;9.50;5.10;;;;;;;3.10;71.88;100333.60;107584;1253;108474;-69
2024/03/26 01:12:30;;;;;;;8.50;4.80;;;;;;;3.05;71.93;100339.23;107604;1254;107696;-67
2024/03/26 01:14:58;;;;;;;13.90;5.30;;;;;;;3.00;72.48;100344.35;107519;1254;99185;-68
2024/03/26 01:17:26;;;;;;;11.40;4.80;;;;;;;2.95;72.33;100349.09;107513;1252;99829;-68
2024/03/26 01:19:54;;;;;;;11.30;4.40;;;;;;;2.90;72.81;100354.75;107532;1256;113280;-68
2024/03/26 01:22:23;;;;;;;11.40;5.00;;;;;;;2.84;73.00;100362.20;107540;1254;108446;-68
2024/03/26 01:24:51;;;;;;;12.80;5.20;;;;;;;2.78;72.62;100360.76;107498;1254;108007;-69
2024/03/26 01:27:19;;;;;;;11.20;5.30;;;;;;;2.73;73.21;100357.60;107521;1254;99639;-68
2024/03/26 01:29:47;;;;;;;12.20;5.10;;;;;;;2.68;73.59;100361.97;107532;1255;99102;-66
2024/03/26 01:32:15;;;;;;;11.30;4.90;;;;;;;2.63;73.87;100366.48;107610;1254;112648;-67
2024/03/26 01:34:43;;;;;;;8.60;4.80;;;;;;;2.58;74.20;100369.30;107582;1254;107949;-68
2024/03/26 01:37:11;;;;;;;8.50;4.50;;;;;;;2.54;74.16;100371.70;107524;1254;108174;-68
2024/03/26 01:39:39;;;;;;;7.20;4.30;;;;;;;2.50;74.60;100373.16;107589;1254;99217;-68
2024/03/26 01:42:07;;;;;;;13.00;4.70;;;;;;;2.46;75.02;100373.53;107601;1256;99141;-68
2024/03/26 01:44:35;;;;;;;7.30;4.50;;;;;;;2.43;75.00;100374.77;107598;1256;113416;-67
2024/03/26 01:47:04;;;;;;;8.40;4.40;;;;;;;2.41;74.99;100375.63;107548;1254;107171;-66
2024/03/26 01:49:34;;;;;;;11.20;5.10;;;;;;;2.42;74.95;100378.42;107519;1254;107224;-68
2024/03/26 01:52:04;;;;;;;6.50;4.30;;;;;;;2.41;74.81;100384.13;107572;1253;99207;-66
2024/03/26 01:54:32;;;;;;;7.40;4.30;;;;;;;2.42;74.88;100394.02;107497;1254;99191;-66
2024/03/26 01:57:00;;;;;;;8.80;4.40;;;;;;;2.43;75.05;100399.23;107621;1255;113668;-68
2024/03/26 01:59:29;;;;;;;7.30;3.70;;;;;;;2.47;75.33;100403.55;107623;1251;108108;-67
2024/03/26 02:01:58;;;;;;;8.00;3.70;;;;;;;2.52;75.12;100404.02;107596;1256;107614;-70
2024/03/26 02:04:26;;;;;;;9.40;4.40;;;;;;;2.55;75.11;100402.77;107560;1257;99188;-69
2024/03/26 02:06:54;;;;;;;5.70;3.60;;;;;;;2.57;75.11;100403.14;107615;1251;99713;-69
2024/03/26 02:09:22;;;;;;;6.50;3.80;;;;;;;2.60;74.86;100411.69;107648;1256;113095;-69
2024/03/26 02:11:50;;;;;;;8.90;4.00;;;;;;;2.60;74.83;100419.08;107575;1256;108412;-68
2024/03/26 02:14:20;;;;;;;9.50;3.80;;;;;;;2.60;74.75;100423.86;107597;1251;107107;-68
2024/03/26 02:16:49;;;;;;;8.40;4.10;;;;;;;2.60;74.91;100424.73;107559;1251;99185;-70
2024/03/26 02:19:20;;;;;;;7.10;3.70;;;;;;;2.60;74.70;100430.79;107596;1257;99342;-70
2024/03/26 02:21:49;;;;;;;8.00;3.90;;;;;;;2.59;74.56;100433.82;107651;1256;112083;-69
2024/03/26 02:24:17;;;;;;;8.20;3.70;;;;;;;2.58;74.66;100433.54;107636;1251;107526;-67
2024/03/26 02:26:46;;;;;;;8.30;3.30;;;;;;;2.59;74.43;100435.81;107529;1254;108226;-67
2024/03/26 02:29:14;;;;;;;6.80;3.90;;;;;;;2.61;74.12;100439.36;107567;1255;99185;-68
2024/03/26 02:31:43;;;;;;;7.70;3.30;;;;;;;2.65;74.02;100440.37;107549;1256;99076;-68
2024/03/26 02:34:11;;;;;;;4.50;2.50;;;;;;;2.65;73.82;100445.00;107622;1254;113371;-69
2024/03/26 02:36:39;;;;;;;6.40;3.10;;;;;;;2.63;73.67;100446.37;107578;1257;108818;-67
2024/03/26 02:39:07;;;;;;;11.20;3.40;;;;;;;2.62;73.76;100457.58;107541;1251;107785;-66
2024/03/26 02:41:36;;;;;;;10.80;4.20;;;;;;;2.61;73.62;100456.02;107571;1251;100606;-67
2024/03/26 02:44:05;;;;;;;8.20;3.10;;;;;;;2.62;73.50;100463.24;107628;1251;99816;-68
2024/03/26 02:46:33;;;;;;;8.90;3.60;;;;;;;2.58;73.85;100460.45;107540;1255;112911;-66
2024/03/26 02:49:01;;;;;;;6.70;3.40;;;;;;;2.52;73.72;100462.41;107560;1254;107486;-67
2024/03/26 02:51:29;;;;;;;5.80;3.60;;;;;;;2.41;74.12;100462.34;107549;1256;108228;-67
2024/03/26 02:53:57;;;;;;;7.80;3.40;;;;;;;2.35;74.45;100468.00;107477;1254;99278;-69
2024/03/26 02:56:26;;;;;;;7.90;4.00;;;;;;;2.31;74.43;100467.17;107509;1256;99057;-69
2024/03/26 02:58:54;;;;;;;5.50;3.60;;;;;;;2.30;74.33;100469.17;107558;1254;113107;-68
2024/03/26 03:01:23;;;;;;;10.00;4.30;;;;;;;2.31;74.06;100474.95;107564;1253;107600;-69
2024/03/26 03:03:51;;;;;;;8.20;4.00;;;;;;;2.31;73.84;100477.46;107601;1256;107579;-68
2024/03/26 03:06:19;;;;;;;7.10;3.90;;;;;;;2.32;73.93;100480.21;107516;1255;99204;-69
2024/03/26 03:08:47;;;;;;;7.20;3.30;;;;;;;2.32;73.97;100482.34;107516;1255;99336;-68
2024/03/26 03:11:15;;;;;;;6.30;3.50;;;;;;;2.30;74.12;100485.66;107598;1255;112732;-67
2024/03/26 03:13:44;;;;;;;7.00;3.20;;;;;;;2.24;74.25;100489.55;107612;1256;107867;-66
2024/03/26 03:16:12;;;;;;;5.70;3.20;;;;;;;2.18;74.64;100499.80;107542;1254;107855;-65
2024/03/26 03:18:40;;;;;;;7.20;3.60;;;;;;;2.12;75.07;100500.48;107564;1256;99173;-67
2024/03/26 03:21:08;;;;;;;6.10;3.80;;;;;;;2.08;75.32;100507.27;107609;1253;99809;-67
2024/03/26 03:23:36;;;;;;;6.70;3.60;;;;;;;2.06;75.14;100511.08;107567;1256;112731;-67
2024/03/26 03:26:04;;;;;;;6.70;4.10;;;;;;;2.04;75.37;100513.13;107542;1252;108634;-68
2024/03/26 03:28:32;;;;;;;11.40;3.80;;;;;;;2.02;75.29;100517.84;107594;1254;106929;-68
2024/03/26 03:31:00;;;;;;;4.60;3.40;;;;;;;2.00;75.54;100521.84;107607;1254;99274;-68
2024/03/26 03:33:28;;;;;;;9.20;3.90;;;;;;;1.96;75.56;100525.78;107614;1254;99319;-68
2024/03/26 03:35:56;;;;;;;8.20;4.00;;;;;;;1.93;75.83;100530.93;107551;1254;112649;-66
2024/03/26 03:38:25;;;;;;;5.10;3.00;;;;;;;1.93;75.72;100538.39;107557;1254;107920;-66
2024/03/26 03:40:53;;;;;;;6.30;3.70;;;;;;;1.92;75.65;100539.70;107541;1254;107513;-66
2024/03/26 03:43:21;;;;;;;10.00;4.30;;;;;;;1.92;75.79;100542.65;107536;1255;99182;-66
2024/03/26 03:45:49;;;;;;;7.10;3.70;;;;;;;1.94;75.39;100553.87;107600;1254;99719;-69
2024/03/26 03:48:17;;;;;;;11.30;4.40;;;;;;;1.95;75.25;100559.67;107543;1255;112506;-69
2024/03/26 03:50:45;;;;;;;7.00;4.20;;;;;;;1.95;75.31;100565.13;107588;1251;108269;-68
2024/03/26 03:53:13;;;;;;;6.60;3.90;;;;;;;1.95;74.98;100567.25;107576;1251;107591;-68
2024/03/26 03:55:41;;;;;;;7.70;4.50;;;;;;;1.94;75.24;100572.42;107495;1254;99269;-68
2024/03/26 03:58:10;;;;;;;6.60;3.40;;;;;;;1.93;75.79;100576.73;107644;1256;100384;-68
2024/03/26 04:00:38;;;;;;;8.00;3.90;;;;;;;1.92;75.28;100581.23;107597;1255;113020;-67
2024/03/26 04:03:06;;;;;;;11.80;4.20;;;;;;;1.93;75.49;100585.42;107587;1257;107974;-66
2024/03/26 04:05:38;;;;;;;10.70;4.80;;;;;;;1.95;75.45;100594.86;107540;1256;108174;-67
2024/03/26 04:08:09;;;;;;;10.70;5.40;;;;;;;1.99;75.30;100594.79;107581;1251;99264;-67
2024/03/26 04:10:41;;;;;;;10.10;5.30;;;;;;;2.02;75.02;100599.25;107609;1251;99166;-65
2024/03/26 04:13:09;;;;;;;7.90;4.60;;;;;;;2.07;75.02;100597.52;107570;1251;112311;-66
2024/03/26 04:15:41;;;;;;;15.70;5.10;;;;;;;2.11;74.86;100602.61;107579;1254;107894;-67
2024/03/26 04:18:09;;;;;;;10.50;4.90;;;;;;;2.10;74.62;100602.52;107548;1251;108554;-66
2024/03/26 04:20:37;;;;;;;10.50;5.80;;;;;;;2.06;74.59;100604.52;107604;1251;99303;-66
2024/03/26 04:23:05;;;;;;;15.80;6.90;;;;;;;2.07;74.70;100607.77;107603;1251;99067;-64
2024/03/26 04:25:33;;;;;;;16.60;5.50;;;;;;;2.14;74.50;100610.97;107576;1251;112623;-65
2024/03/26 04:28:01;;;;;;;9.60;5.40;;;;;;;2.22;74.83;100613.02;107628;1255;108006;-65
2024/03/26 04:30:30;;;;;;;23.50;5.70;;;;;;;2.27;74.77;100617.11;107569;1255;108346;-63
2024/03/26 04:32:58;;;;;;;26.40;6.20;;;;;;;2.33;74.58;100620.16;107599;1254;99180;-64
2024/03/26 04:35:26;;;;;;;19.00;5.90;;;;;;;2.37;74.40;100626.50;107549;1253;99067;-64
2024/03/26 04:37:54;;;;;;;22.60;5.80;;;;;;;2.40;74.12;100632.34;107578;1254;112744;-67
2024/03/26 04:40:22;;;;;;;15.10;5.60;;;;;;;2.40;73.70;100633.94;107595;1254;107975;-69
2024/03/26 04:42:51;;;;;;;9.20;4.60;;;;;;;2.40;73.71;100640.48;107600;1254;108711;-69
2024/03/26 04:45:19;;;;;;;23.80;7.90;;;;;;;2.44;73.71;100645.21;107557;1256;99182;-69
2024/03/26 04:47:47;;;;;;;18.70;7.30;;;;;;;2.50;73.89;100645.02;107616;1254;99246;-68
2024/03/26 04:50:15;;;;;;;14.30;4.70;;;;;;;2.57;74.06;100647.14;107586;1257;113546;-68
2024/03/26 04:52:43;;;;;;;8.60;4.80;;;;;;;2.63;73.83;100653.70;107631;1256;107361;-68
2024/03/26 04:55:12;;;;;;;9.10;4.60;;;;;;;2.63;73.69;100656.55;107576;1253;108048;-68
2024/03/26 04:57:40;;;;;;;9.80;4.60;;;;;;;2.57;73.58;100663.41;107618;1255;99220;-68
2024/03/26 05:00:12;;;;;;;29.20;10.50;;;;;;;2.53;74.20;100667.55;107584;1254;99064;-67
2024/03/26 05:02:42;;;;;;;16.20;6.70;;;;;;;2.51;74.22;100672.96;107631;1256;113441;-68
2024/03/26 05:05:10;;;;;;;12.80;6.00;;;;;;;2.49;74.49;100675.91;107709;1250;108184;-68
2024/03/26 05:07:39;;;;;;;10.30;4.90;;;;;;;2.47;74.64;100676.02;107535;1253;107629;-70
2024/03/26 05:10:08;;;;;;;7.60;4.60;;;;;;;2.48;74.65;100686.02;107570;1254;99185;-66
2024/03/26 05:12:37;;;;;;;11.90;4.80;;;;;;;2.50;74.76;100687.71;107497;1254;99706;-66
2024/03/26 05:15:06;;;;;;;8.40;5.00;;;;;;;2.55;74.80;100688.52;107545;1255;112243;-66
2024/03/26 05:17:37;;;;;;;13.60;5.50;;;;;;;2.61;74.62;100690.63;107596;1254;107442;-68
2024/03/26 05:20:05;;;;;;;15.10;5.10;;;;;;;2.65;74.70;100696.40;107601;1254;107457;-68
2024/03/26 05:22:33;;;;;;;14.50;5.00;;;;;;;2.72;74.77;100696.25;107631;1254;99071;-68
2024/03/26 05:25:03;;;;;;;9.00;4.90;;;;;;;2.78;74.46;100700.65;107571;1254;99170;-68
2024/03/26 05:27:31;;;;;;;13.60;4.70;;;;;;;2.84;74.66;100695.20;107492;1254;111945;-68
2024/03/26 05:29:59;;;;;;;15.60;4.60;;;;;;;2.89;74.87;100695.08;107627;1253;107797;-69
2024/03/26 05:32:27;;;;;;;8.50;4.50;;;;;;;2.96;74.80;100691.14;107631;1251;108667;-67
2024/03/26 05:34:56;;;;;;;10.30;5.00;;;;;;;3.02;75.00;100692.21;107490;1251;99800;-68
2024/03/26 05:37:24;;;;;;;8.60;4.60;;;;;;;3.11;74.66;100691.67;107676;1251;99076;-70
2024/03/26 05:39:52;;;;;;;13.80;4.40;;;;;;;3.20;74.68;100695.63;107606;1251;112970;-66
2024/03/26 05:42:21;;;;;;;5.90;3.90;;;;;;;3.28;74.51;100698.28;107592;1251;107915;-67
2024/03/26 05:44:49;;;;;;;8.80;4.30;;;;;;;3.38;74.41;100700.05;107565;1251;107690;-68
2024/03/26 05:47:18;;;;;;;9.30;4.40;;;;;;;3.45;73.97;100704.05;107564;1254;99182;-67
2024/03/26 05:49:46;;;;;;;7.30;3.90;;;;;;;3.52;73.93;100699.58;107580;1253;99688;-65
2024/03/26 05:52:14;;;;;;;8.00;4.00;;;;;;;3.58;73.78;100701.50;107512;1254;112763;-65
2024/03/26 05:54:42;;;;;;;7.60;4.10;;;;;;;3.65;73.87;100708.04;107572;1253;107854;-66
2024/03/26 05:57:11;;;;;;;11.80;4.40;;;;;;;3.71;73.66;100707.48;107511;1257;108235;-65
2024/03/26 05:59:39;;;;;;;10.80;3.80;;;;;;;3.79;73.64;100717.27;107563;1253;99246;-65
2024/03/26 06:02:07;;;;;;;11.50;4.50;;;;;;;3.86;73.42;100719.70;107615;1254;99197;-68
2024/03/26 06:04:36;;;;;;;11.20;4.10;;;;;;;3.91;73.62;100723.78;107579;1254;113377;-68
2024/03/26 06:07:04;;;;;;;14.40;4.50;;;;;;;3.99;73.30;100720.33;107474;1254;107731;-68
2024/03/26 06:09:32;;;;;;;6.30;4.10;;;;;;;4.07;73.31;100722.11;107491;1254;108558;-65
2024/03/26 06:12:00;;;;;;;8.50;3.60;;;;;;;4.15;73.15;100723.05;107509;1254;99856;-67
2024/03/26 06:14:28;;;;;;;12.10;3.90;;;;;;;4.22;72.77;100726.32;107487;1253;99093;-66
2024/03/26 06:16:56;;;;;;;7.60;4.20;;;;;;;4.33;72.98;100730.95;107437;1254;113225;-66
2024/03/26 06:19:25;;;;;;;10.20;4.50;;;;;;;4.42;72.78;100736.11;107487;1254;107279;-65
2024/03/26 06:21:53;;;;;;;10.90;4.60;;;;;;;4.50;72.45;100741.07;107577;1255;107356;-65
2024/03/26 06:24:21;;;;;;;8.20;4.40;;;;;;;4.58;72.26;100738.66;107596;1254;99176;-65
2024/03/26 06:26:48;;;;;;;8.00;3.70;;;;;;;4.65;72.02;100739.60;107575;1254;99233;-66
2024/03/26 06:29:17;;;;;;;5.40;3.70;;;;;;;4.72;71.91;100745.89;107587;1254;113126;-66
2024/03/26 06:31:44;;;;;;;10.70;4.40;;;;;;;4.76;71.40;100746.39;107603;1253;108270;-67
2024/03/26 06:34:13;;;;;;;6.70;4.10;;;;;;;4.83;71.45;100748.42;107575;1254;107415;-68
2024/03/26 06:36:41;;;;;;;12.60;5.70;;;;;;;4.87;71.39;100753.81;107519;1254;99179;-67
2024/03/26 06:39:10;;;;;;;7.60;4.00;;;;;;;4.94;71.31;100764.58;107616;1253;99183;-66
2024/03/26 06:41:38;;;;;;;13.30;4.90;;;;;;;5.02;71.32;100768.14;107581;1254;112135;-67
2024/03/26 06:44:06;;;;;;;13.80;4.90;;;;;;;5.10;71.20;100776.67;107510;1256;108602;-65
2024/03/26 06:46:34;;;;;;;23.00;5.70;;;;;;;5.19;70.98;100780.55;107483;1254;107982;-66
2024/03/26 06:49:03;;;;;;;10.60;5.10;;;;;;;5.28;70.91;100783.36;107497;1254;99279;-66
2024/03/26 06:51:31;;;;;;;9.70;4.30;;;;;;;5.39;70.55;100779.41;107556;1254;99810;-66
2024/03/26 06:53:59;;;;;;;7.70;3.80;;;;;;;5.49;70.50;100780.17;107612;1254;113698;-67
2024/03/26 06:56:27;;;;;;;11.60;4.00;;;;;;;5.62;70.43;100781.61;107517;1254;108153;-66
2024/03/26 06:58:55;;;;;;;7.90;4.30;;;;;;;5.75;70.30;100781.30;107542;1254;107732;-66
2024/03/26 07:01:24;;;;;;;7.40;4.00;;;;;;;5.89;69.81;100786.20;107552;1254;99192;-67
2024/03/26 07:03:52;;;;;;;10.00;5.10;;;;;;;6.05;69.85;100787.98;107588;1251;99789;-66
2024/03/26 07:06:21;;;;;;;12.40;4.90;;;;;;;6.20;69.43;100786.23;107464;1251;113533;-65
2024/03/26 07:08:49;;;;;;;21.70;6.90;;;;;;;6.39;69.47;100783.69;107472;1251;107982;-65
2024/03/26 07:11:17;;;;;;;21.40;9.80;;;;;;;6.60;69.70;100785.73;107482;1251;106290;-65
2024/03/26 07:13:45;;;;;;;12.00;6.10;;;;;;;6.83;69.22;100785.34;107469;1251;99166;-66
2024/03/26 07:16:14;;;;;;;16.80;4.20;;;;;;;7.07;68.76;100785.23;107587;1256;99115;-66
2024/03/26 07:18:42;;;;;;;16.70;4.70;;;;;;;7.24;67.77;100785.22;107634;1250;113232;-65
2024/03/26 07:21:14;;;;;;;13.60;4.70;;;;;;;7.34;67.04;100787.13;107511;1254;107839;-65
2024/03/26 07:23:42;;;;;;;7.70;4.70;;;;;;;7.45;66.65;100789.20;107468;1251;107172;-66
2024/03/26 07:26:11;;;;;;;11.50;5.10;;;;;;;7.49;66.09;100782.77;107436;1251;99204;-65
2024/03/26 07:28:39;;;;;;;12.10;4.80;;;;;;;7.52;66.21;100782.08;107651;1253;99723;-66
2024/03/26 07:31:09;;;;;;;14.50;5.30;;;;;;;7.50;65.42;100790.77;107586;1254;113273;-66
2024/03/26 07:33:37;;;;;;;10.30;5.40;;;;;;;7.42;65.05;100796.73;107634;1254;107667;-66
2024/03/26 07:36:06;;;;;;;12.80;5.10;;;;;;;7.34;65.30;100791.59;107594;1251;107195;-65
2024/03/26 07:38:34;;;;;;;10.70;6.10;;;;;;;7.30;65.28;100794.98;107472;1251;99184;-65
2024/03/26 07:41:02;;;;;;;11.30;5.30;;;;;;;7.25;65.23;100788.58;107558;1251;100345;-65
2024/03/26 07:43:31;;;;;;;40.80;8.80;;;;;;;7.25;65.82;100791.43;107501;1251;113047;-64
2024/03/26 07:45:59;;;;;;;14.00;5.70;;;;;;;7.32;65.90;100790.33;107417;1251;107405;-64
2024/03/26 07:48:27;;;;;;;9.30;4.70;;;;;;;7.46;66.14;100790.20;107471;1251;106915;-64
2024/03/26 07:50:55;;;;;;;11.40;5.10;;;;;;;7.53;65.38;100787.67;107456;1253;99353;-64
2024/03/26 07:53:23;;;;;;;23.10;6.50;;;;;;;7.62;65.75;100789.15;107549;1254;99685;-65
2024/03/26 07:55:52;;;;;;;14.70;4.60;;;;;;;7.79;66.03;100791.09;107583;1252;113130;-64
2024/03/26 07:58:21;;;;;;;8.30;5.00;;;;;;;7.91;64.40;100793.60;107006;1253;687086;-66
2024/03/26 08:00:51;;;;;;;7.10;4.50;;;;;;;8.05;64.23;100796.98;107552;1254;108237;-65
2024/03/26 08:03:19;;;;;;;7.90;4.50;;;;;;;8.22;63.72;100791.17;107592;1253;99179;-65
2024/03/26 08:05:47;;;;;;;8.70;4.90;;;;;;;8.36;63.59;100796.34;107634;1253;99160;-65
2024/03/26 08:08:15;;;;;;;6.70;3.80;;;;;;;8.56;62.45;100799.63;107609;1254;113176;-66
2024/03/26 08:10:44;;;;;;;8.20;4.40;;;;;;;8.71;62.76;100802.42;107561;1254;106758;-64
2024/03/26 08:13:12;;;;;;;11.30;4.30;;;;;;;8.80;61.18;100807.04;107496;1254;108224;-64
2024/03/26 08:15:40;;;;;;;8.60;4.60;;;;;;;8.80;60.34;100799.86;107616;1253;99169;-62
2024/03/26 08:18:08;;;;;;;12.40;4.30;;;;;;;8.91;61.28;100798.99;107614;1252;99290;-64
2024/03/26 08:20:40;;;;;;;7.60;4.10;;;;;;;9.09;60.26;100792.01;107622;1254;112243;-62
2024/03/26 08:23:08;;;;;;;6.60;3.70;;;;;;;9.27;60.21;100801.47;107551;1254;108395;-64
2024/03/26 08:25:36;;;;;;;10.70;4.20;;;;;;;9.37;59.97;100800.21;107522;1254;108278;-65
2024/03/26 08:28:05;;;;;;;7.10;3.40;;;;;;;9.52;59.56;100792.78;107550;1253;99215;-67
2024/03/26 08:30:33;;;;;;;7.10;4.10;;;;;;;9.68;59.24;100795.69;107590;1253;99733;-65
2024/03/26 08:33:01;;;;;;;6.80;4.30;;;;;;;9.85;58.71;100795.89;107496;1254;112625;-66
2024/03/26 08:35:30;;;;;;;6.70;4.10;;;;;;;9.98;58.54;100803.79;107540;1254;107204;-65
2024/03/26 08:37:59;;;;;;;10.80;4.20;;;;;;;10.09;58.78;100806.00;107560;1254;107623;-65
2024/03/26 08:40:28;;;;;;;10.70;4.20;;;;;;;10.24;58.22;100807.47;107629;1254;99048;-65
2024/03/26 08:42:58;;;;;;;7.70;4.20;;;;;;;10.39;56.76;100802.06;107606;1253;99290;-65
2024/03/26 08:45:26;;;;;;;8.80;4.00;;;;;;;10.52;56.31;100803.47;107619;1254;113638;-64
2024/03/26 08:47:56;;;;;;;7.70;3.50;;;;;;;10.64;55.84;100802.95;107551;1254;107263;-66
2024/03/26 08:50:24;;;;;;;13.00;4.10;;;;;;;10.78;54.80;100805.49;107508;1254;107684;-65
2024/03/26 08:52:52;;;;;;;6.10;3.70;;;;;;;10.90;54.41;100797.53;107600;1252;99294;-64
2024/03/26 08:55:20;;;;;;;9.00;3.60;;;;;;;11.15;54.63;100789.28;107616;1254;99064;-66
2024/03/26 08:57:49;;;;;;;7.50;3.30;;;;;;;11.40;54.54;100791.15;107613;1253;113296;-65
2024/03/26 09:00:17;;;;;;;10.80;3.20;;;;;;;11.71;53.48;100785.58;107613;1253;107782;-65
2024/03/26 09:02:46;;;;;;;13.40;3.80;;;;;;;12.05;53.55;100782.75;107619;1254;107632;-65
2024/03/26 09:05:14;;;;;;;4.20;2.20;;;;;;;12.39;51.43;100783.52;107456;1251;99214;-65
2024/03/26 09:07:43;;;;;;;4.80;3.00;;;;;;;12.67;50.61;100780.50;107584;1251;100412;-65
2024/03/26 09:10:10;;;;;;;9.40;3.60;;;;;;;12.97;50.08;100778.31;107546;1251;114028;-64
2024/03/26 09:12:39;;;;;;;6.00;2.90;;;;;;;13.07;49.63;100780.39;107581;1254;108237;-64
2024/03/26 09:15:10;;;;;;;29.70;3.70;;;;;;;13.28;49.49;100777.33;107600;1254;107391;-64
2024/03/26 09:17:38;;;;;;;15.90;3.30;;;;;;;13.30;49.55;100782.02;107617;1254;99262;-65
2024/03/26 09:20:07;;;;;;;6.20;2.50;;;;;;;13.64;47.88;100780.13;107620;1254;99050;-64
2024/03/26 09:22:35;;;;;;;4.40;2.10;;;;;;;14.02;46.49;100780.27;107635;1253;112750;-64
2024/03/26 09:25:04;;;;;;;5.10;2.70;;;;;;;14.36;45.10;100780.17;107629;1253;106955;-66
2024/03/26 09:27:32;;;;;;;7.70;2.30;;;;;;;14.76;45.20;100779.73;107573;1256;108674;-65
2024/03/26 09:30:02;;;;;;;11.00;3.30;;;;;;;14.87;44.19;100776.49;107434;1253;99163;-65
2024/03/26 09:32:30;;;;;;;8.10;2.60;;;;;;;14.87;43.64;100775.01;107662;1253;99322;-65
2024/03/26 09:34:58;;;;;;;4.50;2.80;;;;;;;14.53;43.34;100777.86;107660;1253;114366;-65
2024/03/26 09:37:26;;;;;;;12.20;2.50;;;;;;;14.33;43.98;100776.61;107589;1254;108839;-65
2024/03/26 09:39:56;;;;;;;6.70;2.40;;;;;;;14.94;42.04;100776.80;107431;1254;107753;-65
2024/03/26 09:42:25;;;;;;;7.30;2.50;;;;;;;15.76;41.54;100774.08;107581;1254;99073;-66
2024/03/26 09:44:55;;;;;;;8.50;3.20;;;;;;;16.57;41.85;100767.44;107610;1254;99710;-65
2024/03/26 09:47:34;;;;;;;6.40;2.60;;;;;;;17.29;40.40;100767.80;107663;1253;111636;-66
2024/03/26 09:50:03;;;;;;;4.80;2.60;;;;;;;17.38;41.04;100772.02;107435;1253;107521;-67
2024/03/26 09:52:34;;;;;;;8.80;2.50;;;;;;;17.68;39.75;100780.02;107623;1254;106628;-66
2024/03/26 09:55:05;;;;;;;7.80;2.80;;;;;;;17.39;39.35;100780.50;107606;1251;99191;-65
2024/03/26 09:57:33;;;;;;;4.20;2.50;;;;;;;16.88;38.81;100778.94;107603;1251;99143;-66
2024/03/26 10:00:02;;;;;;;4.20;2.30;;;;;;;17.36;38.28;100775.30;107618;1252;113149;-65
2024/03/26 10:02:31;;;;;;;12.20;2.80;;;;;;;18.20;37.73;100768.76;107664;1251;109012;-65
2024/03/26 10:05:01;;;;;;;2.70;2.10;;;;;;;19.15;37.48;100770.54;107533;1251;107450;-66
2024/03/26 10:07:32;;;;;;;2.60;2.00;;;;;;;19.89;34.28;100774.30;107678;1251;99063;-66
2024/03/26 10:10:01;;;;;;;6.00;2.10;;;;;;;19.69;33.66;100775.41;107615;1251;99141;-66
2024/03/26 10:12:30;;;;;;;4.80;2.10;;;;;;;19.22;32.85;100783.90;107593;1254;112177;-66
2024/03/26 10:15:00;;;;;;;2.10;1.50;;;;;;;19.72;32.82;100778.05;107622;1251;108416;-66
2024/03/26 10:17:28;;;;;;;2.30;1.20;;;;;;;20.40;30.64;100772.89;107537;1251;105670;-66
2024/03/26 10:19:59;;;;;;;17.90;1.90;;;;;;;20.82;31.34;100779.94;107571;1251;99197;-66
2024/03/26 10:22:27;;;;;;;3.10;1.20;;;;;;;21.41;30.35;100768.80;107627;1251;99185;-65
2024/03/26 10:24:56;;;;;;;2.60;1.20;;;;;;;22.19;30.22;100762.43;107613;1253;112901;-65
2024/03/26 10:27:24;;;;;;;5.30;1.40;;;;;;;22.22;29.53;100765.30;107576;1254;108708;-64
2024/03/26 10:29:52;;;;;;;3.60;1.50;;;;;;;22.04;29.36;100767.64;107659;1255;107566;-64
2024/03/26 10:32:24;;;;;;;1.70;1.30;;;;;;;22.68;29.43;100764.65;107550;1251;99208;-64
2024/03/26 10:35:03;;;;;;;2.90;1.70;;;;;;;22.22;27.07;100766.26;107589;1252;99719;-64
2024/03/26 10:37:32;;;;;;;3.40;1.70;;;;;;;21.61;29.30;100777.33;107628;1254;111669;-65
2024/03/26 10:40:08;;;;;;;3.80;1.30;;;;;;;22.29;28.26;100772.00;107597;1254;108762;-65
2024/03/26 10:42:47;;;;;;;2.40;1.30;;;;;;;22.44;25.98;100769.48;107579;1253;106714;-64
2024/03/26 10:45:16;;;;;;;5.00;1.30;;;;;;;22.79;27.05;100770.59;107543;1253;99179;-65
2024/03/26 10:48:06;;;;;;;1.50;1.20;;;;;;;23.66;26.82;100766.50;107550;1256;100352;-65
2024/03/26 10:50:35;;;;;;;1.70;1.20;;;;;;;24.35;27.08;100758.36;107541;1256;111642;-65
2024/03/26 10:53:05;;;;;;;2.20;0.90;;;;;;;25.12;26.24;100759.93;107611;1251;107758;-63
2024/03/26 10:55:34;;;;;;;2.60;1.20;;;;;;;25.51;24.99;100760.43;107616;1251;108715;-63
2024/03/26 10:58:03;;;;;;;2.30;1.40;;;;;;;26.04;25.36;100755.94;107562;1251;99261;-64
2024/03/26 11:00:34;;;;;;;3.60;1.10;;;;;;;26.52;24.63;100752.06;107655;1251;99128;-65
2024/03/26 11:03:03;;;;;;;6.30;1.60;;;;;;;26.57;23.24;100756.08;107603;1251;112701;-66
2024/03/26 11:05:31;;;;;;;4.00;0.90;;;;;;;26.33;23.64;100754.45;107689;1251;107437;-67
2024/03/26 11:08:00;;;;;;;1.40;1.00;;;;;;;26.32;21.07;100750.09;107507;1250;107617;-67
2024/03/26 11:10:28;;;;;;;1.00;0.80;;;;;;;26.25;21.72;100752.69;107575;1251;99200;-65
2024/03/26 11:12:57;;;;;;;2.50;1.00;;;;;;;26.45;22.07;100754.05;107621;1251;99175;-66
2024/03/26 11:15:31;;;;;;;2.20;1.50;;;;;;;26.35;21.92;100752.45;107717;1251;112686;-66
2024/03/26 11:18:04;;;;;;;6.10;1.40;;;;;;;25.15;22.58;100759.02;107636;1254;107772;-67
2024/03/26 11:20:32;;;;;;;5.20;1.20;;;;;;;23.97;23.51;100759.27;107628;1253;108687;-67